Meldorf - Wetter, 4m . NN
Wetterdaten: aktuell Sonntag, 21.07.2019 08:20
Datum Zeit Auentemp. Bodentemp. Feuchte A. Bodenfeuchte Luftdruck Regen Wind Richtung Richtung Sonnenschein Solar Windchill Windben Empfang
21.07.2019 08:20 17,5 C 17,2 C 93 % 94 cb 1014,4 hPa 0,0 mm 8,4 km/h (2 Bft) N 355 0 min 113 W/m 17,5 C 22,5 km/h (4 Bft) 99 %
21.07.2019 07:26 17,2 C 17,2 C 96 % 95 cb 1014,0 hPa 0,0 mm 5,9 km/h (2 Bft) N 355 0 min 57 W/m 17,2 C 14,5 km/h (3 Bft) 98 %
21.07.2019 06:20 16,9 C 17,8 C 97 % 95 cb 1013,2 hPa 0,0 mm 6,4 km/h (2 Bft) NW 315 0 min 20 W/m 16,9 C 16,1 km/h (3 Bft) 98 %
21.07.2019 05:20 16,7 C 17,8 C 98 % 94 cb 1012,6 hPa 0,0 mm 4,8 km/h (1 Bft) W-NW 292 0 min 0 W/m 16,7 C 11,3 km/h (2 Bft) 100 %
21.07.2019 04:20 16,3 C 17,8 C 97 % 94 cb 1012,1 hPa 0,0 mm 3,2 km/h (1 Bft) W 270 0 min 0 W/m 16,3 C 6,4 km/h (2 Bft) 99 %
21.07.2019 03:20 16,1 C 17,8 C 97 % 94 cb 1012,0 hPa 0,2 mm 3,2 km/h (1 Bft) W-SW 247 0 min 0 W/m 16,1 C 6,4 km/h (2 Bft) 98 %
21.07.2019 02:20 16,4 C 17,8 C 96 % 94 cb 1012,1 hPa 0,0 mm 4,8 km/h (1 Bft) W-SW 247 0 min 0 W/m 16,4 C 8,0 km/h (2 Bft) 98 %
21.07.2019 01:20 16,8 C 18,3 C 95 % 94 cb 1012,1 hPa 0,4 mm 3,2 km/h (1 Bft) W-SW 247 0 min 0 W/m 16,8 C 6,4 km/h (2 Bft) 100 %
21.07.2019 00:20 16,8 C 18,3 C 95 % 93 cb 1012,5 hPa 0,0 mm 3,2 km/h (1 Bft) N-NW 337 0 min 0 W/m 16,8 C 8,0 km/h (2 Bft) 97 %
20.07.2019 23:20 17,1 C 18,3 C 93 % 93 cb 1011,6 hPa 0,0 mm 4,8 km/h (1 Bft) W-SW 247 0 min 0 W/m 17,1 C 9,7 km/h (2 Bft) 100 %
20.07.2019 22:20 17,8 C 18,3 C 92 % 92 cb 1011,2 hPa 0,0 mm 1,6 km/h (1 Bft) S-SW 202 0 min 0 W/m 17,8 C 3,2 km/h (1 Bft) 99 %
20.07.2019 21:20 19,1 C 18,3 C 92 % 91 cb 1011,0 hPa 0,0 mm 1,6 km/h (1 Bft) W-SW 247 0 min 7 W/m 19,1 C 6,4 km/h (2 Bft) 93 %
20.07.2019 20:20 19,4 C 18,3 C 92 % 90 cb 1010,4 hPa 0,0 mm 3,2 km/h (1 Bft) S-SW 202 20 min 61 W/m 19,4 C 8,0 km/h (2 Bft) 86 %
20.07.2019 19:20 19,5 C 18,3 C 95 % 90 cb 1011,0 hPa 0,0 mm 2,1 km/h (1 Bft) S-SW 192 20 min 187 W/m 19,5 C 6,4 km/h (2 Bft) 96 %
20.07.2019 18:20 18,2 C 18,3 C 94 % 89 cb 1010,6 hPa 0,0 mm 0,0 km/h (0 Bft) NW 315 0 min 69 W/m 18,2 C 1,6 km/h (1 Bft) 97 %
20.07.2019 17:20 18,4 C 18,3 C 93 % 88 cb 1010,1 hPa 2,2 mm 0,0 km/h (0 Bft) SO 135 0 min 25 W/m 18,4 C 4,8 km/h (1 Bft) 100 %
20.07.2019 16:20 18,7 C 18,3 C 90 % 86 cb 1011,0 hPa 3,4 mm 3,2 km/h (1 Bft) O-NO 67 0 min 44 W/m 18,7 C 11,3 km/h (2 Bft) 99 %
20.07.2019 15:20 26,9 C 18,3 C 47 % 85 cb 1009,0 hPa 0,0 mm 6,4 km/h (2 Bft) W-SW 247 0 min 312 W/m 26,9 C 14,5 km/h (3 Bft) 98 %
20.07.2019 14:20 26,6 C 18,3 C 47 % 84 cb 1009,9 hPa 0,0 mm 9,7 km/h (2 Bft) W 270 40 min 190 W/m 26,6 C 19,3 km/h (3 Bft) 100 %
20.07.2019 13:20 27,2 C 17,8 C 45 % 84 cb 1010,0 hPa 0,0 mm 9,7 km/h (2 Bft) W 270 60 min 471 W/m 27,2 C 22,5 km/h (4 Bft) 98 %
20.07.2019 12:20 26,5 C 17,8 C 46 % 86 cb 1010,4 hPa 0,0 mm 9,7 km/h (2 Bft) W 270 60 min 599 W/m 26,5 C 20,9 km/h (4 Bft) 100 %
20.07.2019 11:20 24,1 C 17,2 C 56 % 87 cb 1010,9 hPa 0,0 mm 6,4 km/h (2 Bft) S-SW 202 20 min 530 W/m 24,1 C 14,5 km/h (3 Bft) 97 %
20.07.2019 10:20 22,4 C 17,2 C 60 % 87 cb 1011,2 hPa 0,0 mm 4,8 km/h (1 Bft) S-SW 202 0 min 329 W/m 22,4 C 11,3 km/h (2 Bft) 99 %
20.07.2019 09:20 21,1 C 17,2 C 61 % 88 cb 1011,3 hPa 0,0 mm 4,8 km/h (1 Bft) SW 225 20 min 371 W/m 21,1 C 16,1 km/h (3 Bft) 100 %
20.07.2019 09:00 20,1 C 17,2 C 63 % 89 cb 1011,5 hPa 0,0 mm 4,8 km/h (1 Bft) S-SW 202 0 min 340 W/m 20,1 C 14,5 km/h (3 Bft) 98 %
_ Min-Zeit 04:00 08:20 13:40 15:00 15:30 - 00:40 - - - - 04:00 18:50 21:00
Minimum _ 16,1 C 17,2 C 43 % 84 cb 1009,0 hPa - 0,0 km/h (0 Bft) - - - - 16,1 C 0,0 km/h (0 Bft) 85 %
_ Max-Zeit 13:40 16:30 06:10 08:10 08:20 16:00 12:40 - - 20:00 12:50 14:00 15:50 08:00
Maximum _ 27,8 C 18,9 C 98 % 95 cb 1014,4 hPa 1,6 mm 14,5 km/h
W (3 Bft)
- - 10 min 715 W/m 27,7 C 33,8 km/h
N-NO (5 Bft)
100 %
Durchschnitt _ 19,8 C 17,9 C 81 % 90 cb 1011,4 hPa #6,2 mm 4,5 km/h (1 Bft) W-SW - #0 min. 54 W/m 19,8 C 12,0 km/h (2 Bft) 98 %